sensor_id;sensor_type;location;lat;lon;timestamp;P1;durP1;ratioP1;P2;durP2;ratioP2
14736;SDS011;7459;53.590;10.062;2022-08-27T00:00:48;19.63;;;8.27;;
14736;SDS011;7459;53.590;10.062;2022-08-27T00:03:14;20.13;;;7.95;;
14736;SDS011;7459;53.590;10.062;2022-08-27T00:05:41;23.40;;;7.93;;
14736;SDS011;7459;53.590;10.062;2022-08-27T00:08:08;20.75;;;8.32;;
14736;SDS011;7459;53.590;10.062;2022-08-27T00:10:36;18.17;;;8.80;;
14736;SDS011;7459;53.590;10.062;2022-08-27T00:13:03;20.50;;;7.85;;
14736;SDS011;7459;53.590;10.062;2022-08-27T00:15:29;19.13;;;8.15;;
14736;SDS011;7459;53.590;10.062;2022-08-27T00:17:55;18.95;;;7.93;;
14736;SDS011;7459;53.590;10.062;2022-08-27T00:20:22;18.93;;;7.57;;
14736;SDS011;7459;53.590;10.062;2022-08-27T00:22:50;18.38;;;8.27;;
14736;SDS011;7459;53.590;10.062;2022-08-27T00:25:16;19.63;;;8.75;;
14736;SDS011;7459;53.590;10.062;2022-08-27T00:27:43;19.33;;;8.75;;
14736;SDS011;7459;53.590;10.062;2022-08-27T00:30:11;18.05;;;8.18;;
14736;SDS011;7459;53.590;10.062;2022-08-27T00:32:39;18.97;;;9.03;;
14736;SDS011;7459;53.590;10.062;2022-08-27T00:35:06;22.85;;;8.85;;
14736;SDS011;7459;53.590;10.062;2022-08-27T00:37:32;18.40;;;8.10;;
14736;SDS011;7459;53.590;10.062;2022-08-27T00:39:59;17.25;;;8.07;;
14736;SDS011;7459;53.590;10.062;2022-08-27T00:42:25;18.88;;;8.45;;
14736;SDS011;7459;53.590;10.062;2022-08-27T00:44:51;16.87;;;7.60;;
14736;SDS011;7459;53.590;10.062;2022-08-27T00:47:20;20.05;;;8.18;;
14736;SDS011;7459;53.590;10.062;2022-08-27T00:49:50;26.00;;;9.60;;
14736;SDS011;7459;53.590;10.062;2022-08-27T00:52:21;22.55;;;9.35;;
14736;SDS011;7459;53.590;10.062;2022-08-27T00:54:58;20.57;;;8.00;;
14736;SDS011;7459;53.590;10.062;2022-08-27T00:57:34;19.88;;;8.05;;
14736;SDS011;7459;53.590;10.062;2022-08-27T01:00:04;21.88;;;9.10;;
14736;SDS011;7459;53.590;10.062;2022-08-27T01:02:33;14.20;;;7.88;;
14736;SDS011;7459;53.590;10.062;2022-08-27T01:05:04;21.38;;;8.52;;
14736;SDS011;7459;53.590;10.062;2022-08-27T01:07:37;18.00;;;8.10;;
14736;SDS011;7459;53.590;10.062;2022-08-27T01:10:06;19.52;;;8.88;;
14736;SDS011;7459;53.590;10.062;2022-08-27T01:12:36;18.13;;;8.05;;
14736;SDS011;7459;53.590;10.062;2022-08-27T01:15:04;23.85;;;8.38;;
14736;SDS011;7459;53.590;10.062;2022-08-27T01:17:34;21.25;;;8.52;;
14736;SDS011;7459;53.590;10.062;2022-08-27T01:20:03;22.37;;;7.47;;
14736;SDS011;7459;53.590;10.062;2022-08-27T01:22:38;21.38;;;7.85;;
14736;SDS011;7459;53.590;10.062;2022-08-27T01:25:19;24.90;;;8.48;;
14736;SDS011;7459;53.590;10.062;2022-08-27T01:27:47;20.42;;;8.65;;
14736;SDS011;7459;53.590;10.062;2022-08-27T01:30:15;23.48;;;8.32;;
14736;SDS011;7459;53.590;10.062;2022-08-27T01:32:44;20.30;;;8.67;;
14736;SDS011;7459;53.590;10.062;2022-08-27T01:35:11;19.85;;;7.50;;
14736;SDS011;7459;53.590;10.062;2022-08-27T01:37:38;19.83;;;8.38;;
14736;SDS011;7459;53.590;10.062;2022-08-27T01:40:06;21.90;;;7.93;;
14736;SDS011;7459;53.590;10.062;2022-08-27T01:42:37;25.67;;;8.13;;
14736;SDS011;7459;53.590;10.062;2022-08-27T01:45:11;21.23;;;8.10;;
14736;SDS011;7459;53.590;10.062;2022-08-27T01:47:41;17.80;;;7.68;;
14736;SDS011;7459;53.590;10.062;2022-08-27T01:50:12;23.45;;;9.57;;
14736;SDS011;7459;53.590;10.062;2022-08-27T01:52:49;19.17;;;7.90;;
14736;SDS011;7459;53.590;10.062;2022-08-27T01:55:19;22.67;;;8.48;;
14736;SDS011;7459;53.590;10.062;2022-08-27T01:57:49;25.10;;;9.27;;
14736;SDS011;7459;53.590;10.062;2022-08-27T02:00:17;25.02;;;8.75;;
14736;SDS011;7459;53.590;10.062;2022-08-27T02:02:54;24.70;;;8.57;;
14736;SDS011;7459;53.590;10.062;2022-08-27T02:05:21;24.35;;;8.25;;
14736;SDS011;7459;53.590;10.062;2022-08-27T02:07:48;22.95;;;8.88;;
14736;SDS011;7459;53.590;10.062;2022-08-27T02:10:16;25.17;;;9.23;;
14736;SDS011;7459;53.590;10.062;2022-08-27T02:12:49;21.98;;;8.65;;
14736;SDS011;7459;53.590;10.062;2022-08-27T02:15:16;22.70;;;8.77;;
14736;SDS011;7459;53.590;10.062;2022-08-27T02:17:43;19.75;;;8.30;;
14736;SDS011;7459;53.590;10.062;2022-08-27T02:20:10;22.83;;;8.40;;
14736;SDS011;7459;53.590;10.062;2022-08-27T02:22:37;20.80;;;7.67;;
14736;SDS011;7459;53.590;10.062;2022-08-27T02:25:04;18.63;;;7.90;;
14736;SDS011;7459;53.590;10.062;2022-08-27T02:27:33;20.15;;;7.65;;
14736;SDS011;7459;53.590;10.062;2022-08-27T02:29:59;19.60;;;8.13;;
14736;SDS011;7459;53.590;10.062;2022-08-27T02:32:25;21.60;;;8.03;;
14736;SDS011;7459;53.590;10.062;2022-08-27T02:34:52;19.65;;;8.07;;
14736;SDS011;7459;53.590;10.062;2022-08-27T02:37:19;22.58;;;8.68;;
14736;SDS011;7459;53.590;10.062;2022-08-27T02:39:44;20.63;;;8.23;;
14736;SDS011;7459;53.590;10.062;2022-08-27T02:42:10;18.10;;;8.55;;
14736;SDS011;7459;53.590;10.062;2022-08-27T02:44:36;26.37;;;9.10;;
14736;SDS011;7459;53.590;10.062;2022-08-27T02:47:02;18.98;;;8.25;;
14736;SDS011;7459;53.590;10.062;2022-08-27T02:49:28;23.17;;;8.25;;
14736;SDS011;7459;53.590;10.062;2022-08-27T02:51:54;20.00;;;7.97;;
14736;SDS011;7459;53.590;10.062;2022-08-27T02:54:21;17.83;;;7.87;;
14736;SDS011;7459;53.590;10.062;2022-08-27T02:56:49;22.27;;;8.68;;
14736;SDS011;7459;53.590;10.062;2022-08-27T02:59:16;21.55;;;8.00;;
14736;SDS011;7459;53.590;10.062;2022-08-27T03:01:43;25.30;;;8.32;;
14736;SDS011;7459;53.590;10.062;2022-08-27T03:04:09;20.90;;;9.50;;
14736;SDS011;7459;53.590;10.062;2022-08-27T03:06:35;21.27;;;8.60;;
14736;SDS011;7459;53.590;10.062;2022-08-27T03:09:01;24.33;;;8.63;;
14736;SDS011;7459;53.590;10.062;2022-08-27T03:11:27;23.17;;;8.85;;
14736;SDS011;7459;53.590;10.062;2022-08-27T03:13:53;22.47;;;7.60;;
14736;SDS011;7459;53.590;10.062;2022-08-27T03:16:19;19.77;;;7.65;;
14736;SDS011;7459;53.590;10.062;2022-08-27T03:18:45;20.80;;;7.72;;
14736;SDS011;7459;53.590;10.062;2022-08-27T03:21:18;21.47;;;8.47;;
14736;SDS011;7459;53.590;10.062;2022-08-27T03:23:49;20.83;;;7.95;;
14736;SDS011;7459;53.590;10.062;2022-08-27T03:26:16;20.63;;;7.90;;
14736;SDS011;7459;53.590;10.062;2022-08-27T03:28:42;18.17;;;7.63;;
14736;SDS011;7459;53.590;10.062;2022-08-27T03:31:12;20.50;;;7.97;;
14736;SDS011;7459;53.590;10.062;2022-08-27T03:33:50;20.33;;;7.50;;
14736;SDS011;7459;53.590;10.062;2022-08-27T03:36:25;17.58;;;8.30;;
14736;SDS011;7459;53.590;10.062;2022-08-27T03:38:53;23.63;;;8.50;;
14736;SDS011;7459;53.590;10.062;2022-08-27T03:41:20;19.70;;;7.43;;
14736;SDS011;7459;53.590;10.062;2022-08-27T03:43:47;20.65;;;7.78;;
14736;SDS011;7459;53.590;10.062;2022-08-27T03:46:13;25.10;;;8.73;;
14736;SDS011;7459;53.590;10.062;2022-08-27T03:48:40;21.27;;;7.60;;
14736;SDS011;7459;53.590;10.062;2022-08-27T03:51:07;23.05;;;8.05;;
14736;SDS011;7459;53.590;10.062;2022-08-27T03:53:38;21.30;;;7.97;;
14736;SDS011;7459;53.590;10.062;2022-08-27T03:56:06;22.48;;;8.00;;
14736;SDS011;7459;53.590;10.062;2022-08-27T03:58:32;24.23;;;8.77;;
14736;SDS011;7459;53.590;10.062;2022-08-27T04:01:00;19.08;;;8.77;;
14736;SDS011;7459;53.590;10.062;2022-08-27T04:03:26;18.83;;;7.50;;
14736;SDS011;7459;53.590;10.062;2022-08-27T04:05:52;17.83;;;7.10;;
14736;SDS011;7459;53.590;10.062;2022-08-27T04:08:20;19.63;;;8.18;;
14736;SDS011;7459;53.590;10.062;2022-08-27T04:10:47;21.00;;;7.78;;
14736;SDS011;7459;53.590;10.062;2022-08-27T04:13:13;19.10;;;8.45;;
14736;SDS011;7459;53.590;10.062;2022-08-27T04:15:44;20.42;;;8.60;;
14736;SDS011;7459;53.590;10.062;2022-08-27T04:18:12;17.43;;;8.57;;
14736;SDS011;7459;53.590;10.062;2022-08-27T04:20:40;19.02;;;7.82;;
14736;SDS011;7459;53.590;10.062;2022-08-27T04:23:11;17.33;;;7.60;;
14736;SDS011;7459;53.590;10.062;2022-08-27T04:25:38;17.85;;;7.25;;
14736;SDS011;7459;53.590;10.062;2022-08-27T04:28:05;24.10;;;7.88;;
14736;SDS011;7459;53.590;10.062;2022-08-27T04:30:32;20.50;;;7.63;;
14736;SDS011;7459;53.590;10.062;2022-08-27T04:32:58;21.38;;;7.38;;
14736;SDS011;7459;53.590;10.062;2022-08-27T04:35:23;21.10;;;7.97;;
14736;SDS011;7459;53.590;10.062;2022-08-27T04:37:49;20.87;;;8.37;;
14736;SDS011;7459;53.590;10.062;2022-08-27T04:40:15;19.90;;;8.18;;
14736;SDS011;7459;53.590;10.062;2022-08-27T04:42:41;16.95;;;7.32;;
14736;SDS011;7459;53.590;10.062;2022-08-27T04:45:08;15.93;;;7.37;;
14736;SDS011;7459;53.590;10.062;2022-08-27T04:47:34;17.13;;;7.50;;
14736;SDS011;7459;53.590;10.062;2022-08-27T04:50:00;19.80;;;7.45;;
14736;SDS011;7459;53.590;10.062;2022-08-27T04:52:27;21.70;;;7.05;;
14736;SDS011;7459;53.590;10.062;2022-08-27T04:54:52;21.50;;;8.60;;
14736;SDS011;7459;53.590;10.062;2022-08-27T04:57:19;19.88;;;7.78;;
14736;SDS011;7459;53.590;10.062;2022-08-27T04:59:45;13.77;;;7.00;;
14736;SDS011;7459;53.590;10.062;2022-08-27T05:02:11;18.50;;;7.65;;
14736;SDS011;7459;53.590;10.062;2022-08-27T05:04:37;18.20;;;7.77;;
14736;SDS011;7459;53.590;10.062;2022-08-27T05:07:04;13.65;;;6.80;;
14736;SDS011;7459;53.590;10.062;2022-08-27T05:09:32;14.73;;;7.07;;
14736;SDS011;7459;53.590;10.062;2022-08-27T05:11:58;17.98;;;8.02;;
14736;SDS011;7459;53.590;10.062;2022-08-27T05:14:24;14.93;;;7.00;;
14736;SDS011;7459;53.590;10.062;2022-08-27T05:16:54;16.00;;;7.82;;
14736;SDS011;7459;53.590;10.062;2022-08-27T05:19:22;17.83;;;7.45;;
14736;SDS011;7459;53.590;10.062;2022-08-27T05:21:48;20.17;;;7.88;;
14736;SDS011;7459;53.590;10.062;2022-08-27T05:24:16;17.50;;;7.33;;
14736;SDS011;7459;53.590;10.062;2022-08-27T05:26:43;17.08;;;8.00;;
14736;SDS011;7459;53.590;10.062;2022-08-27T05:29:09;25.02;;;7.93;;
14736;SDS011;7459;53.590;10.062;2022-08-27T05:31:35;17.42;;;7.25;;
14736;SDS011;7459;53.590;10.062;2022-08-27T05:34:01;18.33;;;7.80;;
14736;SDS011;7459;53.590;10.062;2022-08-27T05:36:28;18.17;;;7.60;;
14736;SDS011;7459;53.590;10.062;2022-08-27T05:38:58;17.42;;;7.25;;
14736;SDS011;7459;53.590;10.062;2022-08-27T05:41:27;19.75;;;7.82;;
14736;SDS011;7459;53.590;10.062;2022-08-27T05:43:56;17.92;;;8.45;;
14736;SDS011;7459;53.590;10.062;2022-08-27T05:46:25;18.73;;;8.03;;
14736;SDS011;7459;53.590;10.062;2022-08-27T05:48:54;17.95;;;7.82;;
14736;SDS011;7459;53.590;10.062;2022-08-27T05:51:40;21.92;;;7.85;;
14736;SDS011;7459;53.590;10.062;2022-08-27T05:54:07;24.75;;;8.68;;
14736;SDS011;7459;53.590;10.062;2022-08-27T05:56:39;19.65;;;8.65;;
14736;SDS011;7459;53.590;10.062;2022-08-27T05:59:05;19.83;;;8.23;;
14736;SDS011;7459;53.590;10.062;2022-08-27T06:01:51;17.95;;;7.72;;
14736;SDS011;7459;53.590;10.062;2022-08-27T06:04:19;21.42;;;9.52;;
14736;SDS011;7459;53.590;10.062;2022-08-27T06:06:47;23.05;;;8.75;;
14736;SDS011;7459;53.590;10.062;2022-08-27T06:09:17;21.00;;;7.90;;
14736;SDS011;7459;53.590;10.062;2022-08-27T06:11:46;25.07;;;8.40;;
14736;SDS011;7459;53.590;10.062;2022-08-27T06:14:12;19.63;;;8.85;;
14736;SDS011;7459;53.590;10.062;2022-08-27T06:16:38;22.05;;;8.07;;
14736;SDS011;7459;53.590;10.062;2022-08-27T06:19:05;20.15;;;8.90;;
14736;SDS011;7459;53.590;10.062;2022-08-27T06:21:32;18.20;;;8.00;;
14736;SDS011;7459;53.590;10.062;2022-08-27T06:23:58;23.10;;;7.70;;
14736;SDS011;7459;53.590;10.062;2022-08-27T06:26:25;20.05;;;7.53;;
14736;SDS011;7459;53.590;10.062;2022-08-27T06:28:51;22.00;;;7.93;;
14736;SDS011;7459;53.590;10.062;2022-08-27T06:31:24;20.58;;;8.10;;
14736;SDS011;7459;53.590;10.062;2022-08-27T06:33:51;20.77;;;7.43;;
14736;SDS011;7459;53.590;10.062;2022-08-27T06:36:22;22.00;;;10.00;;
14736;SDS011;7459;53.590;10.062;2022-08-27T06:38:49;18.48;;;7.38;;
14736;SDS011;7459;53.590;10.062;2022-08-27T06:41:17;18.60;;;7.40;;
14736;SDS011;7459;53.590;10.062;2022-08-27T06:43:45;16.90;;;7.32;;
14736;SDS011;7459;53.590;10.062;2022-08-27T06:46:13;20.10;;;7.82;;
14736;SDS011;7459;53.590;10.062;2022-08-27T06:48:41;21.17;;;7.30;;
14736;SDS011;7459;53.590;10.062;2022-08-27T06:51:10;21.55;;;7.45;;
14736;SDS011;7459;53.590;10.062;2022-08-27T06:53:42;20.55;;;6.78;;
14736;SDS011;7459;53.590;10.062;2022-08-27T06:56:09;18.20;;;7.93;;
14736;SDS011;7459;53.590;10.062;2022-08-27T06:58:37;19.45;;;6.82;;
14736;SDS011;7459;53.590;10.062;2022-08-27T07:01:11;17.33;;;6.43;;
14736;SDS011;7459;53.590;10.062;2022-08-27T07:03:46;15.70;;;7.25;;
14736;SDS011;7459;53.590;10.062;2022-08-27T07:06:13;17.77;;;6.57;;
14736;SDS011;7459;53.590;10.062;2022-08-27T07:08:40;16.70;;;6.55;;
14736;SDS011;7459;53.590;10.062;2022-08-27T07:11:10;20.00;;;6.88;;
14736;SDS011;7459;53.590;10.062;2022-08-27T07:13:37;15.40;;;6.70;;
14736;SDS011;7459;53.590;10.062;2022-08-27T07:16:04;16.80;;;6.90;;
14736;SDS011;7459;53.590;10.062;2022-08-27T07:18:32;17.27;;;6.20;;
14736;SDS011;7459;53.590;10.062;2022-08-27T07:20:58;19.20;;;6.10;;
14736;SDS011;7459;53.590;10.062;2022-08-27T07:23:24;16.10;;;6.13;;
14736;SDS011;7459;53.590;10.062;2022-08-27T07:25:52;21.33;;;6.03;;
14736;SDS011;7459;53.590;10.062;2022-08-27T07:28:18;15.02;;;5.70;;
14736;SDS011;7459;53.590;10.062;2022-08-27T07:30:44;14.20;;;5.43;;
14736;SDS011;7459;53.590;10.062;2022-08-27T07:33:10;16.10;;;5.63;;
14736;SDS011;7459;53.590;10.062;2022-08-27T07:35:36;17.48;;;5.07;;
14736;SDS011;7459;53.590;10.062;2022-08-27T07:38:03;16.23;;;5.23;;
14736;SDS011;7459;53.590;10.062;2022-08-27T07:40:29;16.88;;;5.88;;
14736;SDS011;7459;53.590;10.062;2022-08-27T07:42:55;20.20;;;5.32;;
14736;SDS011;7459;53.590;10.062;2022-08-27T07:45:44;16.10;;;5.70;;
14736;SDS011;7459;53.590;10.062;2022-08-27T07:48:12;16.83;;;5.97;;
14736;SDS011;7459;53.590;10.062;2022-08-27T07:50:40;14.07;;;5.77;;
14736;SDS011;7459;53.590;10.062;2022-08-27T07:53:07;12.98;;;5.43;;
14736;SDS011;7459;53.590;10.062;2022-08-27T07:55:37;16.85;;;5.18;;
14736;SDS011;7459;53.590;10.062;2022-08-27T07:58:03;16.58;;;5.72;;
14736;SDS011;7459;53.590;10.062;2022-08-27T08:00:30;11.57;;;4.85;;
14736;SDS011;7459;53.590;10.062;2022-08-27T08:02:57;16.53;;;4.70;;
14736;SDS011;7459;53.590;10.062;2022-08-27T08:05:23;15.90;;;5.28;;
14736;SDS011;7459;53.590;10.062;2022-08-27T08:07:49;16.05;;;5.10;;
14736;SDS011;7459;53.590;10.062;2022-08-27T08:10:16;16.58;;;5.03;;
14736;SDS011;7459;53.590;10.062;2022-08-27T08:12:46;16.63;;;4.82;;
14736;SDS011;7459;53.590;10.062;2022-08-27T08:15:12;17.57;;;5.17;;
14736;SDS011;7459;53.590;10.062;2022-08-27T08:17:39;17.65;;;5.43;;
14736;SDS011;7459;53.590;10.062;2022-08-27T08:20:06;15.77;;;4.90;;
14736;SDS011;7459;53.590;10.062;2022-08-27T08:22:33;14.73;;;4.65;;
14736;SDS011;7459;53.590;10.062;2022-08-27T08:25:00;14.45;;;4.50;;
14736;SDS011;7459;53.590;10.062;2022-08-27T08:27:26;12.77;;;4.20;;
14736;SDS011;7459;53.590;10.062;2022-08-27T08:29:52;13.32;;;4.90;;
14736;SDS011;7459;53.590;10.062;2022-08-27T08:32:18;15.48;;;4.38;;
14736;SDS011;7459;53.590;10.062;2022-08-27T08:34:45;12.88;;;5.07;;
14736;SDS011;7459;53.590;10.062;2022-08-27T08:37:11;16.35;;;5.03;;
14736;SDS011;7459;53.590;10.062;2022-08-27T08:39:38;14.60;;;4.77;;
14736;SDS011;7459;53.590;10.062;2022-08-27T08:42:06;17.05;;;4.72;;
14736;SDS011;7459;53.590;10.062;2022-08-27T08:44:42;15.90;;;4.20;;
14736;SDS011;7459;53.590;10.062;2022-08-27T08:47:11;15.07;;;4.75;;
14736;SDS011;7459;53.590;10.062;2022-08-27T08:58:17;15.60;;;4.50;;
14736;SDS011;7459;53.590;10.062;2022-08-27T09:00:56;12.95;;;4.85;;
14736;SDS011;7459;53.590;10.062;2022-08-27T09:03:24;14.77;;;4.80;;
14736;SDS011;7459;53.590;10.062;2022-08-27T09:06:02;15.17;;;5.23;;
14736;SDS011;7459;53.590;10.062;2022-08-27T09:08:35;14.80;;;5.15;;
14736;SDS011;7459;53.590;10.062;2022-08-27T09:13:51;15.00;;;4.90;;
14736;SDS011;7459;53.590;10.062;2022-08-27T09:16:23;12.05;;;4.95;;
14736;SDS011;7459;53.590;10.062;2022-08-27T09:18:49;15.20;;;4.37;;
14736;SDS011;7459;53.590;10.062;2022-08-27T09:21:28;12.65;;;4.80;;
14736;SDS011;7459;53.590;10.062;2022-08-27T09:24:59;13.98;;;4.40;;
14736;SDS011;7459;53.590;10.062;2022-08-27T09:27:01;14.70;;;4.78;;
14736;SDS011;7459;53.590;10.062;2022-08-27T09:29:28;15.15;;;4.50;;
14736;SDS011;7459;53.590;10.062;2022-08-27T09:34:26;13.90;;;4.65;;
14736;SDS011;7459;53.590;10.062;2022-08-27T09:37:09;16.08;;;4.95;;
14736;SDS011;7459;53.590;10.062;2022-08-27T09:42:42;12.85;;;4.07;;
14736;SDS011;7459;53.590;10.062;2022-08-27T09:45:23;14.10;;;4.73;;
14736;SDS011;7459;53.590;10.062;2022-08-27T09:47:53;12.25;;;3.90;;
14736;SDS011;7459;53.590;10.062;2022-08-27T09:50:35;14.27;;;3.90;;
14736;SDS011;7459;53.590;10.062;2022-08-27T09:53:23;14.13;;;4.10;;
14736;SDS011;7459;53.590;10.062;2022-08-27T09:55:56;14.00;;;4.95;;
14736;SDS011;7459;53.590;10.062;2022-08-27T09:58:26;16.00;;;4.27;;
14736;SDS011;7459;53.590;10.062;2022-08-27T10:01:04;11.10;;;3.80;;
14736;SDS011;7459;53.590;10.062;2022-08-27T10:03:40;12.93;;;4.47;;
14736;SDS011;7459;53.590;10.062;2022-08-27T10:06:07;16.42;;;5.07;;
14736;SDS011;7459;53.590;10.062;2022-08-27T10:11:15;11.20;;;4.27;;
14736;SDS011;7459;53.590;10.062;2022-08-27T10:13:49;15.75;;;5.28;;
14736;SDS011;7459;53.590;10.062;2022-08-27T10:24:56;12.00;;;4.33;;
14736;SDS011;7459;53.590;10.062;2022-08-27T10:27:32;13.32;;;3.92;;
14736;SDS011;7459;53.590;10.062;2022-08-27T10:30:09;11.43;;;3.28;;
14736;SDS011;7459;53.590;10.062;2022-08-27T10:33:02;13.45;;;3.90;;
14736;SDS011;7459;53.590;10.062;2022-08-27T10:51:50;18.00;;;4.17;;
14736;SDS011;7459;53.590;10.062;2022-08-27T10:54:27;12.43;;;4.13;;
14736;SDS011;7459;53.590;10.062;2022-08-27T11:00:06;11.68;;;3.92;;
14736;SDS011;7459;53.590;10.062;2022-08-27T11:02:52;10.70;;;3.97;;
14736;SDS011;7459;53.590;10.062;2022-08-27T11:05:39;14.60;;;4.60;;
14736;SDS011;7459;53.590;10.062;2022-08-27T11:08:21;16.40;;;4.60;;
14736;SDS011;7459;53.590;10.062;2022-08-27T11:10:59;15.57;;;4.10;;
14736;SDS011;7459;53.590;10.062;2022-08-27T11:13:32;11.68;;;3.47;;
14736;SDS011;7459;53.590;10.062;2022-08-27T11:16:05;13.27;;;3.45;;
14736;SDS011;7459;53.590;10.062;2022-08-27T11:21:30;13.45;;;3.92;;
14736;SDS011;7459;53.590;10.062;2022-08-27T11:24:11;12.27;;;3.22;;
14736;SDS011;7459;53.590;10.062;2022-08-27T11:26:39;10.10;;;2.60;;
14736;SDS011;7459;53.590;10.062;2022-08-27T11:29:20;13.50;;;2.45;;
14736;SDS011;7459;53.590;10.062;2022-08-27T11:34:35;11.25;;;2.10;;
14736;SDS011;7459;53.590;10.062;2022-08-27T11:45:07;8.77;;;1.67;;
14736;SDS011;7459;53.590;10.062;2022-08-27T11:48:01;9.25;;;2.15;;
14736;SDS011;7459;53.590;10.062;2022-08-27T11:50:53;6.80;;;1.90;;
14736;SDS011;7459;53.590;10.062;2022-08-27T11:53:24;9.90;;;2.20;;
14736;SDS011;7459;53.590;10.062;2022-08-27T11:56:08;10.23;;;1.73;;
14736;SDS011;7459;53.590;10.062;2022-08-27T11:59:08;8.57;;;2.00;;
14736;SDS011;7459;53.590;10.062;2022-08-27T12:01:34;8.85;;;1.88;;
14736;SDS011;7459;53.590;10.062;2022-08-27T12:06:38;7.13;;;1.85;;
14736;SDS011;7459;53.590;10.062;2022-08-27T12:09:13;6.30;;;1.60;;
14736;SDS011;7459;53.590;10.062;2022-08-27T12:11:51;11.17;;;1.83;;
14736;SDS011;7459;53.590;10.062;2022-08-27T12:14:41;8.35;;;2.30;;
14736;SDS011;7459;53.590;10.062;2022-08-27T12:20:23;9.32;;;2.22;;
14736;SDS011;7459;53.590;10.062;2022-08-27T12:25:59;12.00;;;2.00;;
14736;SDS011;7459;53.590;10.062;2022-08-27T12:28:38;8.23;;;2.00;;
14736;SDS011;7459;53.590;10.062;2022-08-27T12:31:04;12.35;;;2.05;;
14736;SDS011;7459;53.590;10.062;2022-08-27T12:33:40;8.25;;;2.00;;
14736;SDS011;7459;53.590;10.062;2022-08-27T12:36:13;10.98;;;2.22;;
14736;SDS011;7459;53.590;10.062;2022-08-27T12:39:02;8.00;;;2.03;;
14736;SDS011;7459;53.590;10.062;2022-08-27T12:41:45;7.45;;;1.60;;
14736;SDS011;7459;53.590;10.062;2022-08-27T12:44:14;7.90;;;1.77;;
14736;SDS011;7459;53.590;10.062;2022-08-27T12:46:48;10.90;;;1.65;;
14736;SDS011;7459;53.590;10.062;2022-08-27T12:49:27;8.38;;;1.50;;
14736;SDS011;7459;53.590;10.062;2022-08-27T12:52:24;9.53;;;1.60;;
14736;SDS011;7459;53.590;10.062;2022-08-27T12:55:02;5.85;;;1.00;;
14736;SDS011;7459;53.590;10.062;2022-08-27T12:57:58;8.32;;;1.83;;
14736;SDS011;7459;53.590;10.062;2022-08-27T13:01:28;9.07;;;1.30;;
14736;SDS011;7459;53.590;10.062;2022-08-27T13:03:59;8.02;;;1.58;;
14736;SDS011;7459;53.590;10.062;2022-08-27T13:06:30;10.03;;;1.37;;
14736;SDS011;7459;53.590;10.062;2022-08-27T13:09:02;13.55;;;1.40;;
14736;SDS011;7459;53.590;10.062;2022-08-27T13:11:32;12.70;;;1.92;;
14736;SDS011;7459;53.590;10.062;2022-08-27T13:14:09;8.93;;;1.17;;
14736;SDS011;7459;53.590;10.062;2022-08-27T13:16:42;10.32;;;1.40;;
14736;SDS011;7459;53.590;10.062;2022-08-27T13:22:03;8.05;;;1.33;;
14736;SDS011;7459;53.590;10.062;2022-08-27T13:27:01;6.10;;;1.50;;
14736;SDS011;7459;53.590;10.062;2022-08-27T13:29:29;8.10;;;1.48;;
14736;SDS011;7459;53.590;10.062;2022-08-27T13:31:55;11.60;;;1.50;;
14736;SDS011;7459;53.590;10.062;2022-08-27T13:34:24;10.82;;;1.65;;
14736;SDS011;7459;53.590;10.062;2022-08-27T13:39:43;7.97;;;1.65;;
14736;SDS011;7459;53.590;10.062;2022-08-27T13:42:09;7.17;;;0.93;;
14736;SDS011;7459;53.590;10.062;2022-08-27T13:44:35;10.52;;;1.80;;
14736;SDS011;7459;53.590;10.062;2022-08-27T13:47:05;9.73;;;1.10;;
14736;SDS011;7459;53.590;10.062;2022-08-27T13:49:38;6.93;;;1.10;;
14736;SDS011;7459;53.590;10.062;2022-08-27T13:55:05;6.28;;;0.80;;
14736;SDS011;7459;53.590;10.062;2022-08-27T13:57:41;8.38;;;1.25;;
14736;SDS011;7459;53.590;10.062;2022-08-27T14:02:53;8.27;;;1.03;;
14736;SDS011;7459;53.590;10.062;2022-08-27T14:07:55;11.20;;;1.33;;
14736;SDS011;7459;53.590;10.062;2022-08-27T14:10:33;9.73;;;1.25;;
14736;SDS011;7459;53.590;10.062;2022-08-27T14:13:06;6.85;;;0.90;;
14736;SDS011;7459;53.590;10.062;2022-08-27T14:15:43;7.93;;;1.23;;
14736;SDS011;7459;53.590;10.062;2022-08-27T14:20:56;7.13;;;1.50;;
14736;SDS011;7459;53.590;10.062;2022-08-27T14:23:23;8.88;;;1.38;;
14736;SDS011;7459;53.590;10.062;2022-08-27T14:25:51;9.75;;;1.20;;
14736;SDS011;7459;53.590;10.062;2022-08-27T14:28:17;7.17;;;1.50;;
14736;SDS011;7459;53.590;10.062;2022-08-27T14:30:44;6.00;;;0.80;;
14736;SDS011;7459;53.590;10.062;2022-08-27T14:33:11;7.22;;;1.20;;
14736;SDS011;7459;53.590;10.062;2022-08-27T14:35:37;7.28;;;0.70;;
14736;SDS011;7459;53.590;10.062;2022-08-27T14:38:09;6.80;;;0.70;;
14736;SDS011;7459;53.590;10.062;2022-08-27T14:40:48;5.77;;;0.70;;
14736;SDS011;7459;53.590;10.062;2022-08-27T14:43:15;6.70;;;0.75;;
14736;SDS011;7459;53.590;10.062;2022-08-27T14:45:42;7.30;;;0.90;;
14736;SDS011;7459;53.590;10.062;2022-08-27T14:48:10;11.85;;;1.02;;
14736;SDS011;7459;53.590;10.062;2022-08-27T14:50:39;5.32;;;0.50;;
14736;SDS011;7459;53.590;10.062;2022-08-27T14:53:06;7.00;;;1.07;;
14736;SDS011;7459;53.590;10.062;2022-08-27T14:55:31;7.05;;;0.75;;
14736;SDS011;7459;53.590;10.062;2022-08-27T14:57:58;7.78;;;1.27;;
14736;SDS011;7459;53.590;10.062;2022-08-27T15:00:24;6.30;;;0.93;;
14736;SDS011;7459;53.590;10.062;2022-08-27T15:02:51;6.73;;;0.60;;
14736;SDS011;7459;53.590;10.062;2022-08-27T15:05:19;6.25;;;0.70;;
14736;SDS011;7459;53.590;10.062;2022-08-27T15:07:45;5.30;;;0.68;;
14736;SDS011;7459;53.590;10.062;2022-08-27T15:10:11;7.77;;;0.60;;
14736;SDS011;7459;53.590;10.062;2022-08-27T15:12:37;8.05;;;0.90;;
14736;SDS011;7459;53.590;10.062;2022-08-27T15:15:05;8.20;;;0.90;;
14736;SDS011;7459;53.590;10.062;2022-08-27T15:17:33;8.70;;;0.85;;
14736;SDS011;7459;53.590;10.062;2022-08-27T15:19:59;4.90;;;0.77;;
14736;SDS011;7459;53.590;10.062;2022-08-27T15:22:27;8.45;;;1.45;;
14736;SDS011;7459;53.590;10.062;2022-08-27T15:24:57;5.63;;;0.60;;
14736;SDS011;7459;53.590;10.062;2022-08-27T15:27:25;9.65;;;0.90;;
14736;SDS011;7459;53.590;10.062;2022-08-27T15:29:53;7.63;;;0.93;;
14736;SDS011;7459;53.590;10.062;2022-08-27T15:32:24;8.90;;;0.75;;
14736;SDS011;7459;53.590;10.062;2022-08-27T15:34:56;5.03;;;0.73;;
14736;SDS011;7459;53.590;10.062;2022-08-27T15:37:25;7.38;;;0.95;;
14736;SDS011;7459;53.590;10.062;2022-08-27T15:39:51;6.30;;;1.15;;
14736;SDS011;7459;53.590;10.062;2022-08-27T15:42:17;4.97;;;0.50;;
14736;SDS011;7459;53.590;10.062;2022-08-27T15:44:48;7.10;;;0.77;;
14736;SDS011;7459;53.590;10.062;2022-08-27T15:47:17;6.00;;;0.45;;
14736;SDS011;7459;53.590;10.062;2022-08-27T15:49:43;5.83;;;0.77;;
14736;SDS011;7459;53.590;10.062;2022-08-27T15:52:09;12.40;;;1.10;;
14736;SDS011;7459;53.590;10.062;2022-08-27T15:54:37;7.80;;;1.13;;
14736;SDS011;7459;53.590;10.062;2022-08-27T15:57:04;5.50;;;0.90;;
14736;SDS011;7459;53.590;10.062;2022-08-27T15:59:30;10.23;;;1.00;;
14736;SDS011;7459;53.590;10.062;2022-08-27T16:01:57;5.80;;;0.60;;
14736;SDS011;7459;53.590;10.062;2022-08-27T16:04:24;6.20;;;1.10;;
14736;SDS011;7459;53.590;10.062;2022-08-27T16:06:50;7.53;;;1.02;;
14736;SDS011;7459;53.590;10.062;2022-08-27T16:09:17;10.50;;;1.10;;
14736;SDS011;7459;53.590;10.062;2022-08-27T16:11:43;6.55;;;0.73;;
14736;SDS011;7459;53.590;10.062;2022-08-27T16:14:09;6.27;;;0.87;;
14736;SDS011;7459;53.590;10.062;2022-08-27T16:16:36;7.68;;;1.52;;
14736;SDS011;7459;53.590;10.062;2022-08-27T16:19:04;8.13;;;1.08;;
14736;SDS011;7459;53.590;10.062;2022-08-27T16:21:31;6.68;;;1.20;;
14736;SDS011;7459;53.590;10.062;2022-08-27T16:24:02;7.20;;;1.48;;